createdAt,value
2022-12-14T00:01:41.858Z,-10.42
2022-12-14T00:06:46.875Z,-10.31
2022-12-14T00:11:48.707Z,-10.21
2022-12-14T00:16:50.896Z,-10.13
2022-12-14T00:21:52.652Z,-10.03
2022-12-14T00:26:55.070Z,-10.02
2022-12-14T00:31:56.912Z,-10.10
2022-12-14T00:36:58.726Z,-9.94
2022-12-14T00:42:00.551Z,-9.89
2022-12-14T00:47:02.323Z,-9.83
2022-12-14T00:52:04.108Z,-9.50
2022-12-14T00:57:05.921Z,-9.24
2022-12-14T01:02:07.738Z,-9.07
2022-12-14T01:07:09.593Z,-8.90
2022-12-14T01:12:11.381Z,-8.79
2022-12-14T01:17:13.177Z,-8.53
2022-12-14T01:22:14.927Z,-8.23
2022-12-14T01:27:16.773Z,-8.05
2022-12-14T01:32:18.569Z,-7.86
2022-12-14T01:37:20.375Z,-7.61
2022-12-14T01:42:22.326Z,-7.53
2022-12-14T01:47:33.257Z,-7.45
2022-12-14T01:52:47.079Z,-7.40
2022-12-14T01:57:58.018Z,-7.47
2022-12-14T02:03:09.400Z,-7.48
2022-12-14T02:08:12.165Z,-7.35
2022-12-14T02:13:27.758Z,-7.12
2022-12-14T02:18:32.020Z,-6.92
2022-12-14T02:23:36.681Z,-6.76
2022-12-14T02:29:03.465Z,-6.76
2022-12-14T02:34:21.548Z,-6.77
2022-12-14T02:40:01.915Z,-6.77
2022-12-14T02:45:20.256Z,-6.81
2022-12-14T02:50:38.141Z,-6.73
2022-12-14T02:55:49.108Z,-6.75
2022-12-14T03:00:53.314Z,-6.71
2022-12-14T03:06:04.504Z,-6.60
2022-12-14T03:11:07.514Z,-6.38
2022-12-14T03:16:15.373Z,-6.28
2022-12-14T03:21:24.076Z,-6.22
2022-12-14T03:26:44.190Z,-6.20
2022-12-14T03:31:54.569Z,-6.16
2022-12-14T03:37:09.642Z,-5.94
2022-12-14T03:42:30.169Z,-5.99
2022-12-14T03:47:47.200Z,-6.02
2022-12-14T03:53:10.835Z,-6.04
2022-12-14T03:58:22.607Z,-6.00
2022-12-14T04:03:27.999Z,-6.03
2022-12-14T04:08:40.160Z,-6.07
2022-12-14T04:14:05.880Z,-6.04
2022-12-14T04:19:16.674Z,-6.03
2022-12-14T04:24:53.249Z,-6.00
2022-12-14T04:29:57.199Z,-5.90
2022-12-14T04:35:18.164Z,-5.93
2022-12-14T04:40:33.977Z,-5.92
2022-12-14T04:45:42.414Z,-6.00
2022-12-14T04:50:49.418Z,-6.06
2022-12-14T04:56:07.103Z,-6.14
2022-12-14T05:01:24.600Z,-6.19
2022-12-14T05:06:29.532Z,-6.31
2022-12-14T05:11:56.672Z,-6.29
2022-12-14T05:17:01.260Z,-6.36
2022-12-14T05:22:08.067Z,-6.44
2022-12-14T05:27:09.931Z,-6.34
2022-12-14T05:32:12.850Z,-6.31
2022-12-14T05:37:18.279Z,-6.25
2022-12-14T05:42:20.447Z,-6.23
2022-12-14T05:47:22.239Z,-6.22
2022-12-14T05:52:27.133Z,-6.19
2022-12-14T05:57:28.936Z,-6.19
2022-12-14T06:02:30.826Z,-6.21
2022-12-14T06:07:32.727Z,-6.23
2022-12-14T06:12:34.673Z,-6.13
2022-12-14T06:17:36.511Z,-6.15
2022-12-14T06:22:42.783Z,-6.19
2022-12-14T06:27:47.629Z,-6.19
2022-12-14T06:32:49.371Z,-6.25
2022-12-14T06:37:51.129Z,-6.43
2022-12-14T06:42:52.850Z,-6.41
2022-12-14T06:47:54.871Z,-6.39
2022-12-14T06:52:56.732Z,-6.21
2022-12-14T06:57:58.715Z,-6.15
2022-12-14T07:03:00.678Z,-6.21
2022-12-14T07:08:03.824Z,-6.21
2022-12-14T07:13:05.604Z,-6.18
2022-12-14T07:18:07.385Z,-6.16
2022-12-14T07:23:09.134Z,-5.99
2022-12-14T07:28:10.888Z,-5.82
2022-12-14T07:33:13.121Z,-5.76
2022-12-14T07:38:14.906Z,-5.57
2022-12-14T07:43:18.846Z,-5.46
2022-12-14T07:48:20.647Z,-5.42
2022-12-14T07:53:22.419Z,-5.28
2022-12-14T07:58:24.352Z,-5.22
2022-12-14T08:03:26.536Z,-5.00
2022-12-14T08:08:28.544Z,-5.06
2022-12-14T08:13:30.990Z,-5.07
2022-12-14T08:18:33.973Z,-5.09
2022-12-14T08:23:36.466Z,-5.05
2022-12-14T08:28:38.375Z,-4.93
2022-12-14T08:33:41.613Z,-4.71
2022-12-14T08:38:43.483Z,-4.43
2022-12-14T08:43:49.622Z,-4.37
2022-12-14T08:48:53.179Z,-4.33
2022-12-14T08:53:55.537Z,-4.40
2022-12-14T08:58:57.843Z,-4.45
2022-12-14T09:04:05.095Z,-4.34
2022-12-14T09:09:13.575Z,-4.16
2022-12-14T09:14:18.111Z,-3.95
2022-12-14T09:19:20.123Z,-3.72
2022-12-14T09:24:24.513Z,-3.56
2022-12-14T09:29:26.830Z,-3.64
2022-12-14T09:34:29.310Z,-3.42
2022-12-14T09:39:35.834Z,-3.21
2022-12-14T09:44:44.058Z,-2.79
2022-12-14T09:50:17.658Z,-2.63
2022-12-14T09:55:33.878Z,-2.85
2022-12-14T10:00:49.625Z,-3.03
2022-12-14T10:05:57.894Z,-3.08
2022-12-14T10:11:20.912Z,-3.07
2022-12-14T10:16:30.833Z,-2.98
2022-12-14T10:21:39.152Z,-3.12
2022-12-14T10:26:50.340Z,-3.02
2022-12-14T10:32:13.490Z,-2.79
2022-12-14T10:37:39.766Z,-2.94
2022-12-14T10:42:49.464Z,-2.84
2022-12-14T10:47:57.988Z,-2.75
2022-12-14T10:53:03.081Z,-2.43
2022-12-14T10:58:04.974Z,-2.50
2022-12-14T11:03:14.041Z,-2.21
2022-12-14T11:08:53.709Z,-1.77
2022-12-14T11:14:07.624Z,-1.48
2022-12-14T11:19:18.530Z,-1.36
2022-12-14T11:24:26.301Z,-1.51
2022-12-14T11:29:35.531Z,-1.78
2022-12-14T11:34:40.459Z,-1.88
2022-12-14T11:39:42.771Z,-2.04
2022-12-14T11:44:46.265Z,-2.05
2022-12-14T11:49:51.213Z,-1.69
2022-12-14T11:54:54.379Z,-1.81
2022-12-14T12:00:04.374Z,-2.00
2022-12-14T12:05:16.359Z,-1.86
2022-12-14T12:10:25.722Z,-1.69
2022-12-14T12:15:38.558Z,-1.74
2022-12-14T12:20:52.055Z,-1.73
2022-12-14T12:25:56.806Z,-1.53
2022-12-14T12:31:10.958Z,-1.47
2022-12-14T12:36:22.022Z,-1.96
2022-12-14T12:42:15.324Z,-2.05
2022-12-14T12:47:29.044Z,-2.05
2022-12-14T12:53:01.118Z,-2.16
2022-12-14T12:58:09.922Z,-1.94
2022-12-14T13:03:32.424Z,-2.54
2022-12-14T13:08:39.460Z,-2.74
2022-12-14T13:13:47.359Z,-2.86
2022-12-14T13:19:04.977Z,-2.55
2022-12-14T13:24:18.714Z,-2.51
2022-12-14T13:29:57.886Z,-2.82
2022-12-14T13:35:37.765Z,-2.64
2022-12-14T13:40:58.248Z,-2.92
2022-12-14T13:46:22.031Z,-2.89
2022-12-14T13:51:30.993Z,-2.73
2022-12-14T13:56:40.364Z,-2.92
2022-12-14T14:01:48.397Z,-2.97
2022-12-14T14:06:52.141Z,-2.99
2022-12-14T14:12:04.295Z,-2.98
2022-12-14T14:17:17.397Z,-2.99
2022-12-14T14:22:23.892Z,-3.01
2022-12-14T14:27:37.714Z,-3.18
2022-12-14T14:32:42.478Z,-3.29
2022-12-14T14:37:55.593Z,-3.37
2022-12-14T14:43:07.830Z,-3.48
2022-12-14T14:48:32.570Z,-3.50
2022-12-14T14:53:36.791Z,-3.46
2022-12-14T14:58:40.989Z,-3.46
2022-12-14T15:03:45.804Z,-3.58
2022-12-14T15:08:58.541Z,-3.55
2022-12-14T15:14:46.731Z,-3.67
2022-12-14T15:19:53.024Z,-3.65
2022-12-14T15:24:58.232Z,-3.80
2022-12-14T15:30:27.600Z,-3.83
2022-12-14T15:35:39.126Z,-3.86
2022-12-14T15:40:41.360Z,-3.88
2022-12-14T15:45:47.071Z,-3.87
2022-12-14T15:50:54.672Z,-3.88
2022-12-14T15:56:02.069Z,-3.83
2022-12-14T16:01:13.842Z,-3.78
2022-12-14T16:06:17.380Z,-3.67
2022-12-14T16:11:33.053Z,-3.69
2022-12-14T16:16:35.068Z,-3.76
2022-12-14T16:21:36.920Z,-3.71
2022-12-14T16:26:38.904Z,-3.65
2022-12-14T16:31:40.792Z,-3.59
2022-12-14T16:36:45.467Z,-3.55
2022-12-14T16:42:04.057Z,-3.45
2022-12-14T16:47:11.914Z,-3.41
2022-12-14T16:52:19.972Z,-3.48
2022-12-14T16:57:24.316Z,-3.42
2022-12-14T17:02:36.239Z,-3.42
2022-12-14T17:07:38.646Z,-3.45
2022-12-14T17:12:40.490Z,-3.40
2022-12-14T17:17:42.994Z,-3.40
2022-12-14T17:22:49.731Z,-3.37
2022-12-14T17:27:51.824Z,-3.41
2022-12-14T17:32:54.930Z,-3.39
2022-12-14T17:37:57.093Z,-3.48
2022-12-14T17:42:59.030Z,-3.66
2022-12-14T17:48:00.949Z,-3.70
2022-12-14T17:53:02.742Z,-3.66
2022-12-14T17:58:04.655Z,-3.66
2022-12-14T18:03:07.579Z,-3.62
2022-12-14T18:08:10.185Z,-3.73
2022-12-14T18:13:13.041Z,-3.79
2022-12-14T18:18:14.829Z,-3.89
2022-12-14T18:23:17.991Z,-3.92
2022-12-14T18:28:20.572Z,-3.94
2022-12-14T18:33:25.451Z,-3.96
2022-12-14T18:38:27.526Z,-3.99
2022-12-14T18:43:30.423Z,-4.00
2022-12-14T18:48:32.552Z,-4.07
2022-12-14T18:53:34.737Z,-4.20
2022-12-14T18:58:36.844Z,-4.29
2022-12-14T19:03:39.161Z,-4.25
2022-12-14T19:08:41.672Z,-4.14
2022-12-14T19:13:46.796Z,-4.11
2022-12-14T19:18:48.655Z,-4.16
2022-12-14T19:23:50.447Z,-4.18
2022-12-14T19:28:52.295Z,-4.24
2022-12-14T19:33:54.162Z,-4.32
2022-12-14T19:38:56.032Z,-4.38
2022-12-14T19:43:58.248Z,-4.48
2022-12-14T19:49:00.601Z,-4.80
2022-12-14T19:54:03.874Z,-5.12
2022-12-14T19:59:05.672Z,-5.43
2022-12-14T20:04:07.481Z,-5.64
2022-12-14T20:09:09.952Z,-5.88
2022-12-14T20:14:13.475Z,-6.04
2022-12-14T20:19:15.336Z,-6.18
2022-12-14T20:24:17.545Z,-6.35
2022-12-14T20:29:19.512Z,-6.43
2022-12-14T20:34:21.446Z,-6.54
2022-12-14T20:39:23.273Z,-6.62
2022-12-14T20:44:25.059Z,-6.64
2022-12-14T20:49:30.118Z,-6.51
2022-12-14T20:54:32.140Z,-6.35
2022-12-14T20:59:33.944Z,-6.37
2022-12-14T21:04:35.760Z,-6.60
2022-12-14T21:09:37.701Z,-6.93
2022-12-14T21:14:48.182Z,-7.18
2022-12-14T21:19:50.765Z,-7.31
2022-12-14T21:25:08.295Z,-7.41
2022-12-14T21:30:11.545Z,-7.58
2022-12-14T21:35:17.583Z,-7.62
2022-12-14T21:40:39.419Z,-7.88
2022-12-14T21:45:41.242Z,-8.08
2022-12-14T21:50:45.338Z,-8.02
2022-12-14T21:55:51.502Z,-8.09
2022-12-14T22:00:53.342Z,-7.64
2022-12-14T22:05:55.186Z,-7.52
2022-12-14T22:11:02.434Z,-7.61
2022-12-14T22:16:06.134Z,-7.74
2022-12-14T22:21:08.071Z,-7.57
2022-12-14T22:26:10.025Z,-7.44
2022-12-14T22:31:11.835Z,-7.55
2022-12-14T22:36:15.096Z,-7.72
2022-12-14T22:41:18.137Z,-7.82
2022-12-14T22:46:20.530Z,-8.05
2022-12-14T22:51:22.396Z,-8.29
2022-12-14T22:56:31.205Z,-8.46
2022-12-14T23:01:36.011Z,-8.40
2022-12-14T23:06:38.047Z,-8.42
2022-12-14T23:11:58.341Z,-8.52
2022-12-14T23:17:19.519Z,-8.31
2022-12-14T23:22:39.692Z,-8.30
2022-12-14T23:27:59.902Z,-8.42
2022-12-14T23:33:20.218Z,-8.69
2022-12-14T23:38:40.466Z,-8.96
2022-12-14T23:44:01.125Z,-9.07
2022-12-14T23:49:21.648Z,-9.20
2022-12-14T23:54:41.852Z,-9.32
